sensor_id;sensor_type;location;lat;lon;timestamp;temperature;humidity
68867;SHT30;56451;44.804;20.476;2023-09-12T00:00:11;25.91;46.23
68867;SHT30;56451;44.804;20.476;2023-09-12T00:02:40;25.88;46.15
68867;SHT30;56451;44.804;20.476;2023-09-12T00:05:06;25.86;46.36
68867;SHT30;56451;44.804;20.476;2023-09-12T00:07:32;25.86;46.24
68867;SHT30;56451;44.804;20.476;2023-09-12T00:09:58;25.85;46.05
68867;SHT30;56451;44.804;20.476;2023-09-12T00:12:24;25.88;45.77
68867;SHT30;56451;44.804;20.476;2023-09-12T00:14:51;25.91;45.44
68867;SHT30;56451;44.804;20.476;2023-09-12T00:17:17;25.89;45.52
68867;SHT30;56451;44.804;20.476;2023-09-12T00:19:43;25.86;45.48
68867;SHT30;56451;44.804;20.476;2023-09-12T00:22:09;25.82;45.49
68867;SHT30;56451;44.804;20.476;2023-09-12T00:24:35;25.81;44.99
68867;SHT30;56451;44.804;20.476;2023-09-12T00:27:00;25.82;45.18
68867;SHT30;56451;44.804;20.476;2023-09-12T00:29:26;25.81;45.24
68867;SHT30;56451;44.804;20.476;2023-09-12T00:31:52;25.81;44.80
68867;SHT30;56451;44.804;20.476;2023-09-12T00:34:18;25.78;44.65
68867;SHT30;56451;44.804;20.476;2023-09-12T00:36:44;25.75;44.83
68867;SHT30;56451;44.804;20.476;2023-09-12T00:39:10;25.72;44.79
68867;SHT30;56451;44.804;20.476;2023-09-12T00:41:36;25.72;44.84
68867;SHT30;56451;44.804;20.476;2023-09-12T00:44:01;25.71;45.17
68867;SHT30;56451;44.804;20.476;2023-09-12T00:46:28;25.70;44.95
68867;SHT30;56451;44.804;20.476;2023-09-12T00:48:57;25.63;45.12
68867;SHT30;56451;44.804;20.476;2023-09-12T00:51:25;25.64;44.95
68867;SHT30;56451;44.804;20.476;2023-09-12T00:53:51;25.61;45.10
68867;SHT30;56451;44.804;20.476;2023-09-12T00:56:17;25.63;45.10
68867;SHT30;56451;44.804;20.476;2023-09-12T00:58:43;25.60;45.20
68867;SHT30;56451;44.804;20.476;2023-09-12T01:01:11;25.63;44.85
68867;SHT30;56451;44.804;20.476;2023-09-12T01:03:38;25.58;44.93
68867;SHT30;56451;44.804;20.476;2023-09-12T01:06:04;25.57;45.21
68867;SHT30;56451;44.804;20.476;2023-09-12T01:08:32;25.57;44.64
68867;SHT30;56451;44.804;20.476;2023-09-12T01:10:58;25.57;44.79
68867;SHT30;56451;44.804;20.476;2023-09-12T01:13:24;25.54;44.66
68867;SHT30;56451;44.804;20.476;2023-09-12T01:15:50;25.54;44.75
68867;SHT30;56451;44.804;20.476;2023-09-12T01:18:16;25.57;44.25
68867;SHT30;56451;44.804;20.476;2023-09-12T01:20:58;25.54;44.29
68867;SHT30;56451;44.804;20.476;2023-09-12T01:23:59;25.54;44.48
68867;SHT30;56451;44.804;20.476;2023-09-12T01:26:29;25.50;44.52
68867;SHT30;56451;44.804;20.476;2023-09-12T01:28:57;25.43;44.53
68867;SHT30;56451;44.804;20.476;2023-09-12T01:31:24;25.37;44.74
68867;SHT30;56451;44.804;20.476;2023-09-12T01:33:55;25.41;44.75
68867;SHT30;56451;44.804;20.476;2023-09-12T01:36:21;25.41;44.58
68867;SHT30;56451;44.804;20.476;2023-09-12T01:38:47;25.35;44.72
68867;SHT30;56451;44.804;20.476;2023-09-12T01:41:13;25.34;44.83
68867;SHT30;56451;44.804;20.476;2023-09-12T01:43:39;25.34;44.95
68867;SHT30;56451;44.804;20.476;2023-09-12T01:46:07;25.35;44.49
68867;SHT30;56451;44.804;20.476;2023-09-12T01:48:34;25.37;44.31
68867;SHT30;56451;44.804;20.476;2023-09-12T01:51:03;25.38;44.32
68867;SHT30;56451;44.804;20.476;2023-09-12T01:53:31;25.40;44.15
68867;SHT30;56451;44.804;20.476;2023-09-12T01:55:58;25.41;43.91
68867;SHT30;56451;44.804;20.476;2023-09-12T01:58:26;25.44;44.27
68867;SHT30;56451;44.804;20.476;2023-09-12T02:00:52;25.41;44.23
68867;SHT30;56451;44.804;20.476;2023-09-12T02:03:19;25.43;44.22
68867;SHT30;56451;44.804;20.476;2023-09-12T02:05:45;25.38;44.20
68867;SHT30;56451;44.804;20.476;2023-09-12T02:08:11;25.35;44.31
68867;SHT30;56451;44.804;20.476;2023-09-12T02:10:37;25.35;44.24
68867;SHT30;56451;44.804;20.476;2023-09-12T02:13:03;25.30;44.22
68867;SHT30;56451;44.804;20.476;2023-09-12T02:15:29;25.34;44.21
68867;SHT30;56451;44.804;20.476;2023-09-12T02:17:55;25.33;43.91
68867;SHT30;56451;44.804;20.476;2023-09-12T02:20:24;25.34;43.92
68867;SHT30;56451;44.804;20.476;2023-09-12T02:22:50;25.31;44.05
68867;SHT30;56451;44.804;20.476;2023-09-12T02:25:17;25.31;44.30
68867;SHT30;56451;44.804;20.476;2023-09-12T02:27:43;25.24;44.09
68867;SHT30;56451;44.804;20.476;2023-09-12T02:30:09;25.26;44.12
68867;SHT30;56451;44.804;20.476;2023-09-12T02:32:38;25.20;44.09
68867;SHT30;56451;44.804;20.476;2023-09-12T02:35:09;25.24;43.60
68867;SHT30;56451;44.804;20.476;2023-09-12T02:37:35;25.20;43.78
68867;SHT30;56451;44.804;20.476;2023-09-12T02:40:02;25.20;43.73
68867;SHT30;56451;44.804;20.476;2023-09-12T02:42:33;25.19;43.85
68867;SHT30;56451;44.804;20.476;2023-09-12T02:44:59;25.20;43.75
68867;SHT30;56451;44.804;20.476;2023-09-12T02:47:24;25.15;43.76
68867;SHT30;56451;44.804;20.476;2023-09-12T02:49:50;25.15;43.93
68867;SHT30;56451;44.804;20.476;2023-09-12T02:52:16;25.15;43.81
68867;SHT30;56451;44.804;20.476;2023-09-12T02:54:42;25.07;43.79
68867;SHT30;56451;44.804;20.476;2023-09-12T02:57:08;25.10;43.60
68867;SHT30;56451;44.804;20.476;2023-09-12T02:59:35;25.06;44.15
68867;SHT30;56451;44.804;20.476;2023-09-12T03:02:00;25.00;44.07
68867;SHT30;56451;44.804;20.476;2023-09-12T03:04:26;25.00;44.09
68867;SHT30;56451;44.804;20.476;2023-09-12T03:06:56;24.96;43.81
68867;SHT30;56451;44.804;20.476;2023-09-12T03:09:23;24.97;43.70
68867;SHT30;56451;44.804;20.476;2023-09-12T03:11:49;24.96;43.61
68867;SHT30;56451;44.804;20.476;2023-09-12T03:14:15;24.89;43.72
68867;SHT30;56451;44.804;20.476;2023-09-12T03:16:42;24.86;44.05
68867;SHT30;56451;44.804;20.476;2023-09-12T03:19:07;24.83;44.28
68867;SHT30;56451;44.804;20.476;2023-09-12T03:21:33;24.79;44.32
68867;SHT30;56451;44.804;20.476;2023-09-12T03:23:59;24.79;44.34
68867;SHT30;56451;44.804;20.476;2023-09-12T03:26:25;24.79;44.20
68867;SHT30;56451;44.804;20.476;2023-09-12T03:28:52;24.76;44.31
68867;SHT30;56451;44.804;20.476;2023-09-12T03:31:18;24.76;44.25
68867;SHT30;56451;44.804;20.476;2023-09-12T03:33:44;24.72;44.38
68867;SHT30;56451;44.804;20.476;2023-09-12T03:36:16;24.69;44.41
68867;SHT30;56451;44.804;20.476;2023-09-12T03:38:42;24.68;44.49
68867;SHT30;56451;44.804;20.476;2023-09-12T03:41:08;24.66;44.59
68867;SHT30;56451;44.804;20.476;2023-09-12T03:43:34;24.66;44.33
68867;SHT30;56451;44.804;20.476;2023-09-12T03:46:02;24.64;44.34
68867;SHT30;56451;44.804;20.476;2023-09-12T03:48:30;24.62;44.22
68867;SHT30;56451;44.804;20.476;2023-09-12T03:50:59;24.61;44.40
68867;SHT30;56451;44.804;20.476;2023-09-12T03:53:26;24.58;44.75
68867;SHT30;56451;44.804;20.476;2023-09-12T03:55:54;24.57;44.45
68867;SHT30;56451;44.804;20.476;2023-09-12T03:58:19;24.54;44.65
68867;SHT30;56451;44.804;20.476;2023-09-12T04:00:45;24.48;44.87
68867;SHT30;56451;44.804;20.476;2023-09-12T04:03:11;24.48;44.79
68867;SHT30;56451;44.804;20.476;2023-09-12T04:05:37;24.45;45.05
68867;SHT30;56451;44.804;20.476;2023-09-12T04:08:03;24.45;44.82
68867;SHT30;56451;44.804;20.476;2023-09-12T04:10:29;24.45;44.86
68867;SHT30;56451;44.804;20.476;2023-09-12T04:12:55;24.39;44.81
68867;SHT30;56451;44.804;20.476;2023-09-12T04:15:21;24.42;44.59
68867;SHT30;56451;44.804;20.476;2023-09-12T04:17:48;24.35;45.29
68867;SHT30;56451;44.804;20.476;2023-09-12T04:20:14;24.31;45.16
68867;SHT30;56451;44.804;20.476;2023-09-12T04:22:42;24.31;45.20
68867;SHT30;56451;44.804;20.476;2023-09-12T04:25:08;24.25;45.31
68867;SHT30;56451;44.804;20.476;2023-09-12T04:27:34;24.21;45.48
68867;SHT30;56451;44.804;20.476;2023-09-12T04:30:00;24.21;45.47
68867;SHT30;56451;44.804;20.476;2023-09-12T04:32:26;24.24;45.51
68867;SHT30;56451;44.804;20.476;2023-09-12T04:34:51;24.21;45.25
68867;SHT30;56451;44.804;20.476;2023-09-12T04:37:18;24.22;45.41
68867;SHT30;56451;44.804;20.476;2023-09-12T04:39:44;24.21;44.90
68867;SHT30;56451;44.804;20.476;2023-09-12T04:42:11;24.21;45.39
68867;SHT30;56451;44.804;20.476;2023-09-12T04:44:39;24.20;45.29
68867;SHT30;56451;44.804;20.476;2023-09-12T04:47:05;24.21;45.30
68867;SHT30;56451;44.804;20.476;2023-09-12T04:49:32;24.25;44.90
68867;SHT30;56451;44.804;20.476;2023-09-12T04:51:58;24.21;45.03
68867;SHT30;56451;44.804;20.476;2023-09-12T04:54:23;24.24;44.94
68867;SHT30;56451;44.804;20.476;2023-09-12T04:56:49;24.18;44.83
68867;SHT30;56451;44.804;20.476;2023-09-12T04:59:15;24.20;45.09
68867;SHT30;56451;44.804;20.476;2023-09-12T05:01:41;24.20;45.29
68867;SHT30;56451;44.804;20.476;2023-09-12T05:04:07;24.24;44.89
68867;SHT30;56451;44.804;20.476;2023-09-12T05:06:33;24.20;45.17
68867;SHT30;56451;44.804;20.476;2023-09-12T05:08:59;24.22;44.95
68867;SHT30;56451;44.804;20.476;2023-09-12T05:11:25;24.22;45.15
68867;SHT30;56451;44.804;20.476;2023-09-12T05:13:52;24.25;44.89
68867;SHT30;56451;44.804;20.476;2023-09-12T05:16:18;24.27;45.05
68867;SHT30;56451;44.804;20.476;2023-09-12T05:18:44;24.21;45.24
68867;SHT30;56451;44.804;20.476;2023-09-12T05:21:10;24.20;45.47
68867;SHT30;56451;44.804;20.476;2023-09-12T05:23:36;24.18;45.47
68867;SHT30;56451;44.804;20.476;2023-09-12T05:26:02;24.22;45.19
68867;SHT30;56451;44.804;20.476;2023-09-12T05:28:28;24.22;45.52
68867;SHT30;56451;44.804;20.476;2023-09-12T05:30:57;24.24;45.59
68867;SHT30;56451;44.804;20.476;2023-09-12T05:33:23;24.25;45.45
68867;SHT30;56451;44.804;20.476;2023-09-12T05:35:49;24.27;45.45
68867;SHT30;56451;44.804;20.476;2023-09-12T05:38:16;24.27;45.52
68867;SHT30;56451;44.804;20.476;2023-09-12T05:40:42;24.25;45.74
68867;SHT30;56451;44.804;20.476;2023-09-12T05:43:07;24.31;45.71
68867;SHT30;56451;44.804;20.476;2023-09-12T05:45:33;24.35;45.17
68867;SHT30;56451;44.804;20.476;2023-09-12T05:48:00;24.38;45.35
68867;SHT30;56451;44.804;20.476;2023-09-12T05:50:27;24.45;45.00
68867;SHT30;56451;44.804;20.476;2023-09-12T05:52:53;24.47;45.04
68867;SHT30;56451;44.804;20.476;2023-09-12T05:55:19;24.49;44.79
68867;SHT30;56451;44.804;20.476;2023-09-12T05:57:45;24.55;44.74
68867;SHT30;56451;44.804;20.476;2023-09-12T06:00:11;24.59;44.63
68867;SHT30;56451;44.804;20.476;2023-09-12T06:02:41;24.58;44.59
68867;SHT30;56451;44.804;20.476;2023-09-12T06:05:08;24.59;44.92
68867;SHT30;56451;44.804;20.476;2023-09-12T06:07:34;24.64;44.72
68867;SHT30;56451;44.804;20.476;2023-09-12T06:10:01;24.64;44.59
68867;SHT30;56451;44.804;20.476;2023-09-12T06:12:27;24.69;44.69
68867;SHT30;56451;44.804;20.476;2023-09-12T06:14:52;24.73;44.74
68867;SHT30;56451;44.804;20.476;2023-09-12T06:17:21;24.75;44.67
68867;SHT30;56451;44.804;20.476;2023-09-12T06:19:48;24.75;44.77
68867;SHT30;56451;44.804;20.476;2023-09-12T06:22:17;24.79;45.61
68867;SHT30;56451;44.804;20.476;2023-09-12T06:24:44;24.83;44.94
68867;SHT30;56451;44.804;20.476;2023-09-12T06:27:10;24.89;44.58
68867;SHT30;56451;44.804;20.476;2023-09-12T06:29:39;24.89;44.79
68867;SHT30;56451;44.804;20.476;2023-09-12T06:32:05;24.90;44.66
68867;SHT30;56451;44.804;20.476;2023-09-12T06:34:31;24.93;44.98
68867;SHT30;56451;44.804;20.476;2023-09-12T06:36:57;24.92;44.67
68867;SHT30;56451;44.804;20.476;2023-09-12T06:39:22;24.96;44.57
68867;SHT30;56451;44.804;20.476;2023-09-12T06:41:50;24.97;44.67
68867;SHT30;56451;44.804;20.476;2023-09-12T06:44:16;25.02;44.53
68867;SHT30;56451;44.804;20.476;2023-09-12T06:46:41;25.05;44.63
68867;SHT30;56451;44.804;20.476;2023-09-12T06:49:07;25.02;44.93
68867;SHT30;56451;44.804;20.476;2023-09-12T06:51:33;25.07;45.11
68867;SHT30;56451;44.804;20.476;2023-09-12T06:53:59;25.09;45.30
68867;SHT30;56451;44.804;20.476;2023-09-12T06:56:25;25.16;44.85
68867;SHT30;56451;44.804;20.476;2023-09-12T06:58:51;25.20;44.78
68867;SHT30;56451;44.804;20.476;2023-09-12T07:01:18;25.24;45.06
68867;SHT30;56451;44.804;20.476;2023-09-12T07:03:44;25.24;44.73
68867;SHT30;56451;44.804;20.476;2023-09-12T07:06:10;25.28;44.84
68867;SHT30;56451;44.804;20.476;2023-09-12T07:08:36;25.31;44.74
68867;SHT30;56451;44.804;20.476;2023-09-12T07:11:04;25.34;44.55
68867;SHT30;56451;44.804;20.476;2023-09-12T07:13:32;25.40;44.72
68867;SHT30;56451;44.804;20.476;2023-09-12T07:15:59;25.41;44.48
68867;SHT30;56451;44.804;20.476;2023-09-12T07:18:25;25.45;44.53
68867;SHT30;56451;44.804;20.476;2023-09-12T07:21:01;25.51;44.34
68867;SHT30;56451;44.804;20.476;2023-09-12T07:23:28;25.58;44.29
68867;SHT30;56451;44.804;20.476;2023-09-12T07:25:55;25.58;44.37
68867;SHT30;56451;44.804;20.476;2023-09-12T07:28:27;25.60;44.82
68867;SHT30;56451;44.804;20.476;2023-09-12T07:30:56;25.68;44.50
68867;SHT30;56451;44.804;20.476;2023-09-12T07:33:22;25.71;44.59
68867;SHT30;56451;44.804;20.476;2023-09-12T07:35:50;25.72;44.69
68867;SHT30;56451;44.804;20.476;2023-09-12T07:38:18;25.85;44.64
68867;SHT30;56451;44.804;20.476;2023-09-12T07:40:45;25.88;44.74
68867;SHT30;56451;44.804;20.476;2023-09-12T07:43:11;25.92;44.72
68867;SHT30;56451;44.804;20.476;2023-09-12T07:45:37;25.91;44.96
68867;SHT30;56451;44.804;20.476;2023-09-12T07:48:08;25.98;45.06
68867;SHT30;56451;44.804;20.476;2023-09-12T07:50:34;26.02;45.15
68867;SHT30;56451;44.804;20.476;2023-09-12T07:53:00;26.06;45.21
68867;SHT30;56451;44.804;20.476;2023-09-12T07:55:26;26.12;45.28
68867;SHT30;56451;44.804;20.476;2023-09-12T07:57:56;26.20;45.08
68867;SHT30;56451;44.804;20.476;2023-09-12T08:00:22;26.23;45.05
68867;SHT30;56451;44.804;20.476;2023-09-12T08:02:49;26.30;45.13
68867;SHT30;56451;44.804;20.476;2023-09-12T08:05:15;26.35;44.97
68867;SHT30;56451;44.804;20.476;2023-09-12T08:07:41;26.36;44.95
68867;SHT30;56451;44.804;20.476;2023-09-12T08:10:07;26.39;44.98
68867;SHT30;56451;44.804;20.476;2023-09-12T08:12:33;26.43;44.85
68867;SHT30;56451;44.804;20.476;2023-09-12T08:15:00;26.44;44.72
68867;SHT30;56451;44.804;20.476;2023-09-12T08:17:26;26.53;44.43
68867;SHT30;56451;44.804;20.476;2023-09-12T08:19:53;26.57;44.60
68867;SHT30;56451;44.804;20.476;2023-09-12T08:22:20;26.60;44.05
68867;SHT30;56451;44.804;20.476;2023-09-12T08:24:46;26.67;43.75
68867;SHT30;56451;44.804;20.476;2023-09-12T08:27:11;26.74;43.43
68867;SHT30;56451;44.804;20.476;2023-09-12T08:29:38;26.81;43.21
68867;SHT30;56451;44.804;20.476;2023-09-12T08:32:04;26.88;42.91
68867;SHT30;56451;44.804;20.476;2023-09-12T08:34:30;26.94;42.83
68867;SHT30;56451;44.804;20.476;2023-09-12T08:36:56;26.99;42.70
68867;SHT30;56451;44.804;20.476;2023-09-12T08:39:26;27.05;42.61
68867;SHT30;56451;44.804;20.476;2023-09-12T08:41:53;27.11;42.25
68867;SHT30;56451;44.804;20.476;2023-09-12T08:44:20;27.11;42.63
68867;SHT30;56451;44.804;20.476;2023-09-12T08:46:47;27.16;42.10
68867;SHT30;56451;44.804;20.476;2023-09-12T08:49:13;27.25;41.92
68867;SHT30;56451;44.804;20.476;2023-09-12T08:51:40;27.32;41.79
68867;SHT30;56451;44.804;20.476;2023-09-12T08:54:07;27.34;41.90
68867;SHT30;56451;44.804;20.476;2023-09-12T08:56:36;27.38;41.88
68867;SHT30;56451;44.804;20.476;2023-09-12T08:59:04;27.45;41.99
68867;SHT30;56451;44.804;20.476;2023-09-12T09:01:31;27.52;42.19
68867;SHT30;56451;44.804;20.476;2023-09-12T09:03:57;27.57;41.59
68867;SHT30;56451;44.804;20.476;2023-09-12T09:06:23;27.59;41.65
68867;SHT30;56451;44.804;20.476;2023-09-12T09:08:51;27.66;41.95
68867;SHT30;56451;44.804;20.476;2023-09-12T09:11:17;27.69;42.33
68867;SHT30;56451;44.804;20.476;2023-09-12T09:13:43;27.73;42.31
68867;SHT30;56451;44.804;20.476;2023-09-12T09:16:14;27.77;42.09
68867;SHT30;56451;44.804;20.476;2023-09-12T09:21:24;27.86;40.78
68867;SHT30;56451;44.804;20.476;2023-09-12T09:23:52;27.93;40.30
68867;SHT30;56451;44.804;20.476;2023-09-12T09:26:18;27.97;40.46
68867;SHT30;56451;44.804;20.476;2023-09-12T09:28:45;28.01;40.35
68867;SHT30;56451;44.804;20.476;2023-09-12T09:31:12;28.07;40.42
68867;SHT30;56451;44.804;20.476;2023-09-12T09:33:41;28.08;40.39
68867;SHT30;56451;44.804;20.476;2023-09-12T09:36:14;28.17;40.01
68867;SHT30;56451;44.804;20.476;2023-09-12T09:38:40;28.20;39.66
68867;SHT30;56451;44.804;20.476;2023-09-12T09:41:06;28.27;39.82
68867;SHT30;56451;44.804;20.476;2023-09-12T09:43:33;28.29;39.54
68867;SHT30;56451;44.804;20.476;2023-09-12T09:45:59;28.34;39.35
68867;SHT30;56451;44.804;20.476;2023-09-12T09:48:26;28.35;39.69
68867;SHT30;56451;44.804;20.476;2023-09-12T09:51:01;28.41;39.48
68867;SHT30;56451;44.804;20.476;2023-09-12T09:53:29;28.47;39.16
68867;SHT30;56451;44.804;20.476;2023-09-12T09:56:16;28.51;39.22
68867;SHT30;56451;44.804;20.476;2023-09-12T09:58:48;28.56;39.33
68867;SHT30;56451;44.804;20.476;2023-09-12T10:01:23;28.66;38.71
68867;SHT30;56451;44.804;20.476;2023-09-12T10:03:51;28.69;38.71
68867;SHT30;56451;44.804;20.476;2023-09-12T10:06:19;28.72;38.61
68867;SHT30;56451;44.804;20.476;2023-09-12T10:08:49;28.82;38.69
68867;SHT30;56451;44.804;20.476;2023-09-12T10:11:16;28.88;38.60
68867;SHT30;56451;44.804;20.476;2023-09-12T10:13:49;28.92;37.89
68867;SHT30;56451;44.804;20.476;2023-09-12T10:16:21;28.96;37.74
68867;SHT30;56451;44.804;20.476;2023-09-12T10:19:15;29.00;38.22
68867;SHT30;56451;44.804;20.476;2023-09-12T10:21:49;29.06;37.82
68867;SHT30;56451;44.804;20.476;2023-09-12T10:24:15;29.09;36.96
68867;SHT30;56451;44.804;20.476;2023-09-12T10:26:43;29.07;37.03
68867;SHT30;56451;44.804;20.476;2023-09-12T10:29:14;29.16;36.90
68867;SHT30;56451;44.804;20.476;2023-09-12T10:31:42;29.17;36.84
68867;SHT30;56451;44.804;20.476;2023-09-12T10:34:10;29.26;36.92
68867;SHT30;56451;44.804;20.476;2023-09-12T10:36:39;29.30;36.49
68867;SHT30;56451;44.804;20.476;2023-09-12T10:39:06;29.37;36.73
68867;SHT30;56451;44.804;20.476;2023-09-12T10:41:33;29.37;36.52
68867;SHT30;56451;44.804;20.476;2023-09-12T10:44:14;29.41;36.14
68867;SHT30;56451;44.804;20.476;2023-09-12T10:46:41;29.44;35.93
68867;SHT30;56451;44.804;20.476;2023-09-12T10:49:08;29.48;36.06
68867;SHT30;56451;44.804;20.476;2023-09-12T10:51:38;29.54;36.15
68867;SHT30;56451;44.804;20.476;2023-09-12T10:54:06;29.64;35.15
68867;SHT30;56451;44.804;20.476;2023-09-12T10:56:33;29.69;35.11
68867;SHT30;56451;44.804;20.476;2023-09-12T11:01:39;29.75;34.75
68867;SHT30;56451;44.804;20.476;2023-09-12T11:06:50;29.84;34.83
68867;SHT30;56451;44.804;20.476;2023-09-12T11:09:23;29.89;34.67
68867;SHT30;56451;44.804;20.476;2023-09-12T11:11:59;29.93;34.05
68867;SHT30;56451;44.804;20.476;2023-09-12T11:14:27;29.96;33.81
68867;SHT30;56451;44.804;20.476;2023-09-12T11:17:22;30.01;34.26
68867;SHT30;56451;44.804;20.476;2023-09-12T11:19:51;30.02;34.10
68867;SHT30;56451;44.804;20.476;2023-09-12T11:22:30;30.09;34.00
68867;SHT30;56451;44.804;20.476;2023-09-12T11:25:03;30.13;33.82
68867;SHT30;56451;44.804;20.476;2023-09-12T11:30:21;30.22;33.64
68867;SHT30;56451;44.804;20.476;2023-09-12T11:32:50;30.32;33.51
68867;SHT30;56451;44.804;20.476;2023-09-12T11:35:17;30.35;33.07
68867;SHT30;56451;44.804;20.476;2023-09-12T11:37:53;30.40;33.36
68867;SHT30;56451;44.804;20.476;2023-09-12T11:42:59;30.48;32.92
68867;SHT30;56451;44.804;20.476;2023-09-12T11:45:25;30.56;32.47
68867;SHT30;56451;44.804;20.476;2023-09-12T11:47:51;30.59;33.23
68867;SHT30;56451;44.804;20.476;2023-09-12T11:53:10;30.59;33.18
68867;SHT30;56451;44.804;20.476;2023-09-12T11:55:47;30.59;32.66
68867;SHT30;56451;44.804;20.476;2023-09-12T11:58:15;30.63;32.58
68867;SHT30;56451;44.804;20.476;2023-09-12T12:00:53;30.67;32.83
68867;SHT30;56451;44.804;20.476;2023-09-12T12:03:22;30.63;33.77
68867;SHT30;56451;44.804;20.476;2023-09-12T12:05:48;30.67;32.03
68867;SHT30;56451;44.804;20.476;2023-09-12T12:08:16;30.68;32.58
68867;SHT30;56451;44.804;20.476;2023-09-12T12:10:42;30.70;31.94
68867;SHT30;56451;44.804;20.476;2023-09-12T12:13:15;30.74;32.02
68867;SHT30;56451;44.804;20.476;2023-09-12T12:15:41;30.73;32.70
68867;SHT30;56451;44.804;20.476;2023-09-12T12:18:07;30.78;31.37
68867;SHT30;56451;44.804;20.476;2023-09-12T12:20:33;30.85;32.26
68867;SHT30;56451;44.804;20.476;2023-09-12T12:22:59;30.88;31.88
68867;SHT30;56451;44.804;20.476;2023-09-12T12:25:25;30.94;31.17
68867;SHT30;56451;44.804;20.476;2023-09-12T12:27:51;30.96;31.39
68867;SHT30;56451;44.804;20.476;2023-09-12T12:30:18;30.98;31.59
68867;SHT30;56451;44.804;20.476;2023-09-12T12:32:46;31.01;31.89
68867;SHT30;56451;44.804;20.476;2023-09-12T12:35:22;31.01;32.40
68867;SHT30;56451;44.804;20.476;2023-09-12T12:37:49;31.04;31.60
68867;SHT30;56451;44.804;20.476;2023-09-12T12:40:16;31.08;31.46
68867;SHT30;56451;44.804;20.476;2023-09-12T12:42:43;31.14;30.89
68867;SHT30;56451;44.804;20.476;2023-09-12T12:45:17;31.14;31.31
68867;SHT30;56451;44.804;20.476;2023-09-12T12:47:43;31.15;30.84
68867;SHT30;56451;44.804;20.476;2023-09-12T12:50:13;31.16;30.51
68867;SHT30;56451;44.804;20.476;2023-09-12T12:52:40;31.22;30.39
68867;SHT30;56451;44.804;20.476;2023-09-12T12:55:09;31.22;30.67
68867;SHT30;56451;44.804;20.476;2023-09-12T12:57:39;31.16;30.69
68867;SHT30;56451;44.804;20.476;2023-09-12T13:00:07;31.16;30.40
68867;SHT30;56451;44.804;20.476;2023-09-12T13:02:33;31.18;30.00
68867;SHT30;56451;44.804;20.476;2023-09-12T13:04:59;31.21;30.64
68867;SHT30;56451;44.804;20.476;2023-09-12T13:07:25;31.25;30.46
68867;SHT30;56451;44.804;20.476;2023-09-12T13:09:51;31.32;30.60
68867;SHT30;56451;44.804;20.476;2023-09-12T13:12:17;31.33;30.65
68867;SHT30;56451;44.804;20.476;2023-09-12T13:14:43;31.36;30.59
68867;SHT30;56451;44.804;20.476;2023-09-12T13:17:10;31.33;30.12
68867;SHT30;56451;44.804;20.476;2023-09-12T13:19:36;31.36;30.34
68867;SHT30;56451;44.804;20.476;2023-09-12T13:22:02;31.35;30.96
68867;SHT30;56451;44.804;20.476;2023-09-12T13:24:28;31.41;30.69
68867;SHT30;56451;44.804;20.476;2023-09-12T13:26:54;31.39;30.25
68867;SHT30;56451;44.804;20.476;2023-09-12T13:29:20;31.46;30.10
68867;SHT30;56451;44.804;20.476;2023-09-12T13:31:46;31.47;29.99
68867;SHT30;56451;44.804;20.476;2023-09-12T13:34:12;31.53;30.26
68867;SHT30;56451;44.804;20.476;2023-09-12T13:36:38;31.56;30.16
68867;SHT30;56451;44.804;20.476;2023-09-12T13:39:04;31.59;29.99
68867;SHT30;56451;44.804;20.476;2023-09-12T13:41:32;31.60;30.16
68867;SHT30;56451;44.804;20.476;2023-09-12T13:43:58;31.65;30.41
68867;SHT30;56451;44.804;20.476;2023-09-12T13:46:24;31.72;30.00
68867;SHT30;56451;44.804;20.476;2023-09-12T13:48:50;31.74;30.23
68867;SHT30;56451;44.804;20.476;2023-09-12T13:51:15;31.79;29.87
68867;SHT30;56451;44.804;20.476;2023-09-12T13:53:41;31.87;29.42
68867;SHT30;56451;44.804;20.476;2023-09-12T13:56:07;31.90;29.41
68867;SHT30;56451;44.804;20.476;2023-09-12T13:58:33;31.94;29.63
68867;SHT30;56451;44.804;20.476;2023-09-12T14:00:59;32.00;29.49
68867;SHT30;56451;44.804;20.476;2023-09-12T14:03:25;32.04;29.60
68867;SHT30;56451;44.804;20.476;2023-09-12T14:05:51;32.13;28.99
68867;SHT30;56451;44.804;20.476;2023-09-12T14:08:17;32.20;28.86
68867;SHT30;56451;44.804;20.476;2023-09-12T14:10:43;32.25;28.50
68867;SHT30;56451;44.804;20.476;2023-09-12T14:13:09;32.27;28.45
68867;SHT30;56451;44.804;20.476;2023-09-12T14:15:35;32.32;28.51
68867;SHT30;56451;44.804;20.476;2023-09-12T14:18:01;32.41;28.70
68867;SHT30;56451;44.804;20.476;2023-09-12T14:20:26;32.41;28.88
68867;SHT30;56451;44.804;20.476;2023-09-12T14:22:52;32.41;28.49
68867;SHT30;56451;44.804;20.476;2023-09-12T14:25:18;32.47;28.63
68867;SHT30;56451;44.804;20.476;2023-09-12T14:27:44;32.54;28.31
68867;SHT30;56451;44.804;20.476;2023-09-12T14:30:11;32.55;28.44
68867;SHT30;56451;44.804;20.476;2023-09-12T14:32:40;32.61;28.30
68867;SHT30;56451;44.804;20.476;2023-09-12T14:35:06;32.62;28.47
68867;SHT30;56451;44.804;20.476;2023-09-12T14:37:33;32.68;28.10
68867;SHT30;56451;44.804;20.476;2023-09-12T14:40:04;32.72;27.59
68867;SHT30;56451;44.804;20.476;2023-09-12T14:42:30;32.72;27.91
68867;SHT30;56451;44.804;20.476;2023-09-12T14:44:56;32.75;28.79
68867;SHT30;56451;44.804;20.476;2023-09-12T14:47:22;32.79;27.79
68867;SHT30;56451;44.804;20.476;2023-09-12T14:49:50;32.79;28.25
68867;SHT30;56451;44.804;20.476;2023-09-12T14:52:16;32.82;28.46
68867;SHT30;56451;44.804;20.476;2023-09-12T14:54:41;32.83;28.41
68867;SHT30;56451;44.804;20.476;2023-09-12T14:57:07;32.85;27.79
68867;SHT30;56451;44.804;20.476;2023-09-12T14:59:33;32.80;27.91
68867;SHT30;56451;44.804;20.476;2023-09-12T15:01:59;32.79;28.10
68867;SHT30;56451;44.804;20.476;2023-09-12T15:04:25;32.76;28.33
68867;SHT30;56451;44.804;20.476;2023-09-12T15:06:51;32.75;27.95
68867;SHT30;56451;44.804;20.476;2023-09-12T15:09:18;32.75;28.00
68867;SHT30;56451;44.804;20.476;2023-09-12T15:11:43;32.76;28.02
68867;SHT30;56451;44.804;20.476;2023-09-12T15:14:09;32.74;28.03
68867;SHT30;56451;44.804;20.476;2023-09-12T15:16:35;32.69;28.62
68867;SHT30;56451;44.804;20.476;2023-09-12T15:19:01;32.69;27.75
68867;SHT30;56451;44.804;20.476;2023-09-12T15:21:28;32.65;28.17
68867;SHT30;56451;44.804;20.476;2023-09-12T15:23:54;32.62;28.56
68867;SHT30;56451;44.804;20.476;2023-09-12T15:26:20;32.61;28.44
68867;SHT30;56451;44.804;20.476;2023-09-12T15:28:46;32.58;28.05
68867;SHT30;56451;44.804;20.476;2023-09-12T15:31:12;32.56;28.17